PWSweather.com
Personal Weather Stations
Station Observations
STEFBZH56
PontScorff, PontScorffFR

PontScorffPontScorffFR

Lat: 47.831518, Lon: -3.4222200000000385

Elevation: 141

Station Type: Oregon WMR200

http://www.meteo-pontscorff.fr

Latest ConditionsUpdated 8:45:00 AM GMT+01:01 Monday, Dec 10, 2018
Currently Today's Max Today's Min Today's Average
Temperature 37.2°F2.9°C 43.1°F6.2°C 34.9°F1.6°C 39.0°F3.9°C
Dew Point 36.7°F2.6°C 42.1°F5.6°C 34.4°F1.3°C 38.4°F3.6°C
Winds Calm Calm 3.3 mph -5.3 kmh - - 1.1 mph 1.8 kmh
Wind Gusts -- 4.0 mph6.4 kmh - -
Humidity 98% 98% 96% 98%
Pressure 30.46 in1031.5 mb 30.46 in1031.5 mb 30.40 in1029.5 mb -
Hour Temp Dew Point Humidity Winds Wind Gusts Pressure Precip Precip Rate Daily Precip Total
08:45 AM 37.2°F2.9°C 36.7°F2.6°C 98% Calm Calm -- 30.46 in1031.5 mb 0.00 in0.0 mm 0.00 in0.0 mm 0.00 in0.0 mm
08:40 AM 37.4°F3.0°C 36.9°F2.7°C 98% 0.7 mph SE1.1 kmh SE 2.0 mph3.2 kmh 30.46 in1031.5 mb 0.00 in0.0 mm 0.00 in0.0 mm 0.00 in0.0 mm
08:35 AM 37.4°F3.0°C 36.9°F2.7°C 98% 1.5 mph SE2.4 kmh SE 2.5 mph4.0 kmh 30.46 in1031.5 mb 0.00 in0.0 mm 0.00 in0.0 mm 0.00 in0.0 mm
08:30 AM 37.7°F3.2°C 37.1°F2.8°C 98% 1.5 mph SE2.4 kmh SE 2.0 mph3.2 kmh 30.46 in1031.5 mb 0.00 in0.0 mm 0.00 in0.0 mm 0.00 in0.0 mm
08:25 AM 37.8°F3.2°C 37.2°F2.9°C 98% 1.0 mph SE1.6 kmh SE 2.7 mph4.3 kmh 30.46 in1031.5 mb 0.00 in0.0 mm 0.00 in0.0 mm 0.00 in0.0 mm
08:20 AM 37.6°F3.1°C 37.1°F2.8°C 98% 1.7 mph SE2.7 kmh SE 2.9 mph4.7 kmh 30.46 in1031.5 mb 0.00 in0.0 mm 0.00 in0.0 mm 0.00 in0.0 mm
08:15 AM 37.2°F2.9°C 36.7°F2.6°C 98% 2.3 mph SE3.7 kmh SE 3.6 mph5.8 kmh 30.46 in1031.5 mb 0.00 in0.0 mm 0.00 in0.0 mm 0.00 in0.0 mm
08:10 AM 37.0°F2.8°C 36.5°F2.5°C 98% 1.7 mph SE2.7 kmh SE 2.0 mph3.2 kmh 30.46 in1031.5 mb 0.00 in0.0 mm 0.00 in0.0 mm 0.00 in0.0 mm
08:05 AM 36.9°F2.7°C 36.4°F2.4°C 98% 1.7 mph SE2.7 kmh SE 2.0 mph3.2 kmh 30.46 in1031.5 mb 0.00 in0.0 mm 0.00 in0.0 mm 0.00 in0.0 mm
08:00 AM 36.8°F2.7°C 36.3°F2.4°C 98% 1.3 mph SE2.1 kmh SE 2.0 mph3.2 kmh 30.46 in1031.5 mb 0.00 in0.0 mm 0.00 in0.0 mm 0.00 in0.0 mm
07:55 AM 36.7°F2.6°C 36.2°F2.3°C 98% Calm Calm 0.7 mph1.1 kmh 30.46 in1031.5 mb 0.00 in0.0 mm 0.00 in0.0 mm 0.00 in0.0 mm
07:50 AM 36.6°F2.6°C 36.1°F2.3°C 98% 1.5 mph SE2.4 kmh SE 1.8 mph2.9 kmh 30.46 in1031.5 mb 0.00 in0.0 mm 0.00 in0.0 mm 0.00 in0.0 mm
07:45 AM 36.4°F2.4°C 35.8°F2.1°C 98% 1.6 mph SE2.6 kmh SE 2.0 mph3.2 kmh 30.46 in1031.5 mb 0.00 in0.0 mm 0.00 in0.0 mm 0.00 in0.0 mm
07:40 AM 36.2°F2.3°C 35.7°F2.1°C 98% 1.5 mph SE2.4 kmh SE 2.0 mph3.2 kmh 30.46 in1031.5 mb 0.00 in0.0 mm 0.00 in0.0 mm 0.00 in0.0 mm
07:35 AM 36.0°F2.2°C 35.5°F1.9°C 98% 1.4 mph SE2.3 kmh SE 2.0 mph3.2 kmh 30.46 in1031.5 mb 0.00 in0.0 mm 0.00 in0.0 mm 0.00 in0.0 mm
07:30 AM 36.0°F2.2°C 35.5°F1.9°C 98% 1.8 mph SE2.9 kmh SE 2.7 mph4.3 kmh 30.46 in1031.5 mb 0.00 in0.0 mm 0.00 in0.0 mm 0.00 in0.0 mm
07:25 AM 35.7°F2.1°C 35.2°F1.8°C 98% 2.4 mph SE3.9 kmh SE 2.9 mph4.7 kmh 30.46 in1031.5 mb 0.00 in0.0 mm 0.00 in0.0 mm 0.00 in0.0 mm
07:20 AM 35.2°F1.8°C 34.6°F1.4°C 98% 1.7 mph SSE2.7 kmh SSE 2.7 mph4.3 kmh 30.46 in1031.5 mb 0.00 in0.0 mm 0.00 in0.0 mm 0.00 in0.0 mm
07:15 AM 34.9°F1.6°C 34.4°F1.3°C 98% 0.2 mph SW0.3 kmh SW 1.6 mph2.6 kmh 30.46 in1031.5 mb 0.00 in0.0 mm 0.00 in0.0 mm 0.00 in0.0 mm
07:10 AM 35.1°F1.7°C 34.6°F1.4°C 98% Calm Calm -- 30.46 in1031.5 mb 0.00 in0.0 mm 0.00 in0.0 mm 0.00 in0.0 mm
07:05 AM 35.7°F2.1°C 35.2°F1.8°C 98% 0.1 mph W0.2 kmh W 1.1 mph1.8 kmh 30.46 in1031.5 mb 0.00 in0.0 mm 0.00 in0.0 mm 0.00 in0.0 mm
07:00 AM 36.5°F2.5°C 36.0°F2.2°C 98% 1.3 mph W2.1 kmh W 2.7 mph4.3 kmh 30.46 in1031.5 mb 0.00 in0.0 mm 0.00 in0.0 mm 0.00 in0.0 mm
06:55 AM 37.4°F3.0°C 36.9°F2.7°C 98% 2.1 mph W3.4 kmh W 3.4 mph5.5 kmh 30.46 in1031.5 mb 0.00 in0.0 mm 0.00 in0.0 mm 0.00 in0.0 mm
06:50 AM 37.5°F3.1°C 37.0°F2.8°C 98% 1.8 mph W2.9 kmh W 2.9 mph4.7 kmh 30.46 in1031.5 mb 0.00 in0.0 mm 0.00 in0.0 mm 0.00 in0.0 mm
06:45 AM 37.2°F2.9°C 36.7°F2.6°C 98% 1.0 mph W1.6 kmh W 2.5 mph4.0 kmh 30.46 in1031.5 mb 0.00 in0.0 mm 0.00 in0.0 mm 0.00 in0.0 mm
06:40 AM 37.1°F2.8°C 36.6°F2.6°C 98% Calm Calm 1.3 mph2.1 kmh 30.46 in1031.5 mb 0.00 in0.0 mm 0.00 in0.0 mm 0.00 in0.0 mm
06:35 AM 37.4°F3.0°C 36.9°F2.7°C 98% 0.2 mph W0.3 kmh W 1.8 mph2.9 kmh 30.46 in1031.5 mb 0.00 in0.0 mm 0.00 in0.0 mm 0.00 in0.0 mm
06:30 AM 37.6°F3.1°C 37.1°F2.8°C 98% 0.7 mph W1.1 kmh W 1.8 mph2.9 kmh 30.46 in1031.5 mb 0.00 in0.0 mm 0.00 in0.0 mm 0.00 in0.0 mm
06:25 AM 37.8°F3.2°C 37.2°F2.9°C 98% 0.3 mph W0.5 kmh W 1.8 mph2.9 kmh 30.46 in1031.5 mb 0.00 in0.0 mm 0.00 in0.0 mm 0.00 in0.0 mm
06:20 AM 37.9°F3.3°C 37.4°F3.0°C 98% 0.2 mph W0.3 kmh W 1.6 mph2.6 kmh 30.46 in1031.5 mb 0.00 in0.0 mm 0.00 in0.0 mm 0.00 in0.0 mm
06:15 AM 38.0°F3.3°C 37.5°F3.1°C 98% 0.5 mph W0.8 kmh W 1.6 mph2.6 kmh 30.45 in1031.2 mb 0.00 in0.0 mm 0.00 in0.0 mm 0.00 in0.0 mm
06:10 AM 38.5°F3.6°C 38.0°F3.3°C 98% 2.0 mph WSW3.2 kmh WSW 3.1 mph5.0 kmh 30.43 in1030.5 mb 0.00 in0.0 mm 0.00 in0.0 mm 0.00 in0.0 mm
06:05 AM 38.8°F3.8°C 38.3°F3.5°C 98% 2.4 mph W3.9 kmh W 3.6 mph5.8 kmh 30.43 in1030.5 mb 0.00 in0.0 mm 0.00 in0.0 mm 0.00 in0.0 mm
06:00 AM 38.7°F3.7°C 38.1°F3.4°C 98% 0.6 mph W1.0 kmh W 2.5 mph4.0 kmh 30.43 in1030.5 mb 0.00 in0.0 mm 0.00 in0.0 mm 0.00 in0.0 mm
05:55 AM 38.6°F3.7°C 38.1°F3.4°C 98% Calm Calm -- 30.46 in1031.5 mb 0.00 in0.0 mm 0.00 in0.0 mm 0.00 in0.0 mm
05:50 AM 38.3°F3.5°C 37.8°F3.2°C 98% Calm Calm -- 30.46 in1031.5 mb 0.00 in0.0 mm 0.00 in0.0 mm 0.00 in0.0 mm
05:45 AM 38.4°F3.6°C 37.9°F3.3°C 98% Calm Calm -- 30.46 in1031.5 mb 0.00 in0.0 mm 0.00 in0.0 mm 0.00 in0.0 mm
05:40 AM 38.5°F3.6°C 38.0°F3.3°C 98% Calm Calm -- 30.46 in1031.5 mb 0.00 in0.0 mm 0.00 in0.0 mm 0.00 in0.0 mm
05:35 AM 38.8°F3.8°C 38.2°F3.4°C 98% 0.4 mph W0.6 kmh W 1.8 mph2.9 kmh 30.46 in1031.5 mb 0.00 in0.0 mm 0.00 in0.0 mm 0.00 in0.0 mm
05:30 AM 38.9°F3.8°C 38.4°F3.6°C 98% 1.3 mph W2.1 kmh W 2.0 mph3.2 kmh 30.45 in1031.2 mb 0.00 in0.0 mm 0.00 in0.0 mm 0.00 in0.0 mm
05:25 AM 39.0°F3.9°C 38.5°F3.6°C 98% 1.1 mph W1.8 kmh W 2.0 mph3.2 kmh 30.43 in1030.5 mb 0.00 in0.0 mm 0.00 in0.0 mm 0.00 in0.0 mm
05:20 AM 38.8°F3.8°C 38.3°F3.5°C 98% Calm Calm -- 30.43 in1030.5 mb 0.00 in0.0 mm 0.00 in0.0 mm 0.00 in0.0 mm
05:15 AM 38.7°F3.7°C 38.2°F3.4°C 98% Calm Calm -- 30.43 in1030.5 mb 0.00 in0.0 mm 0.00 in0.0 mm 0.00 in0.0 mm
05:10 AM 38.6°F3.7°C 38.1°F3.4°C 98% Calm Calm -- 30.46 in1031.5 mb 0.00 in0.0 mm 0.00 in0.0 mm 0.00 in0.0 mm
05:05 AM 38.7°F3.7°C 38.2°F3.4°C 98% Calm Calm 0.2 mph0.3 kmh 30.46 in1031.5 mb 0.00 in0.0 mm 0.00 in0.0 mm 0.00 in0.0 mm
05:00 AM 38.8°F3.8°C 38.3°F3.5°C 98% 0.1 mph W0.2 kmh W 1.3 mph2.1 kmh 30.46 in1031.5 mb 0.00 in0.0 mm 0.00 in0.0 mm 0.00 in0.0 mm
04:55 AM 38.9°F3.8°C 38.4°F3.6°C 98% 0.3 mph W0.5 kmh W 1.6 mph2.6 kmh 30.46 in1031.5 mb 0.00 in0.0 mm 0.00 in0.0 mm 0.00 in0.0 mm
04:50 AM 38.8°F3.8°C 38.3°F3.5°C 98% 1.7 mph W2.7 kmh W 2.5 mph4.0 kmh 30.46 in1031.5 mb 0.00 in0.0 mm 0.00 in0.0 mm 0.00 in0.0 mm
04:45 AM 38.5°F3.6°C 38.0°F3.3°C 98% 1.7 mph W2.7 kmh W 2.5 mph4.0 kmh 30.46 in1031.5 mb 0.00 in0.0 mm 0.00 in0.0 mm 0.00 in0.0 mm
04:40 AM 38.2°F3.4°C 37.7°F3.2°C 98% 1.3 mph W2.1 kmh W 1.8 mph2.9 kmh 30.46 in1031.5 mb 0.00 in0.0 mm 0.00 in0.0 mm 0.00 in0.0 mm
04:35 AM 37.9°F3.3°C 37.4°F3.0°C 98% 0.7 mph W1.1 kmh W 1.6 mph2.6 kmh 30.46 in1031.5 mb 0.00 in0.0 mm 0.00 in0.0 mm 0.00 in0.0 mm
04:30 AM 37.8°F3.2°C 37.2°F2.9°C 98% 0.5 mph W0.8 kmh W 1.6 mph2.6 kmh 30.46 in1031.5 mb 0.00 in0.0 mm 0.00 in0.0 mm 0.00 in0.0 mm
04:25 AM 37.8°F3.2°C 37.2°F2.9°C 98% 1.8 mph W2.9 kmh W 2.9 mph4.7 kmh 30.46 in1031.5 mb 0.00 in0.0 mm 0.00 in0.0 mm 0.00 in0.0 mm
04:20 AM 38.1°F3.4°C 37.6°F3.1°C 98% 2.0 mph W3.2 kmh W 2.7 mph4.3 kmh 30.46 in1031.5 mb 0.00 in0.0 mm 0.00 in0.0 mm 0.00 in0.0 mm
04:15 AM 38.4°F3.6°C 37.9°F3.3°C 98% 1.6 mph W2.6 kmh W 2.7 mph4.3 kmh 30.46 in1031.5 mb 0.00 in0.0 mm 0.00 in0.0 mm 0.00 in0.0 mm
04:10 AM 39.1°F3.9°C 38.6°F3.7°C 98% 0.4 mph W0.6 kmh W 1.8 mph2.9 kmh 30.46 in1031.5 mb 0.00 in0.0 mm 0.00 in0.0 mm 0.00 in0.0 mm
04:05 AM 39.6°F4.2°C 39.0°F3.9°C 98% 2.2 mph W3.5 kmh W 3.1 mph5.0 kmh 30.46 in1031.5 mb 0.00 in0.0 mm 0.00 in0.0 mm 0.00 in0.0 mm
04:00 AM 39.6°F4.2°C 39.0°F3.9°C 98% 3.1 mph W5.0 kmh W 3.8 mph6.1 kmh 30.46 in1031.5 mb 0.00 in0.0 mm 0.00 in0.0 mm 0.00 in0.0 mm
03:55 AM 39.4°F4.1°C 38.9°F3.8°C 98% 2.9 mph WSW4.7 kmh WSW 3.8 mph6.1 kmh 30.46 in1031.5 mb 0.00 in0.0 mm 0.00 in0.0 mm 0.00 in0.0 mm
03:50 AM 39.3°F4.1°C 38.7°F3.7°C 98% 0.4 mph W0.6 kmh W 2.5 mph4.0 kmh 30.46 in1031.5 mb 0.00 in0.0 mm 0.00 in0.0 mm 0.00 in0.0 mm
03:45 AM 39.6°F4.2°C 39.0°F3.9°C 98% 2.3 mph W3.7 kmh W 3.1 mph5.0 kmh 30.46 in1031.5 mb 0.00 in0.0 mm 0.00 in0.0 mm 0.00 in0.0 mm
03:40 AM 39.7°F4.3°C 39.2°F4.0°C 98% 3.3 mph W5.3 kmh W 4.0 mph6.4 kmh 30.46 in1031.5 mb 0.00 in0.0 mm 0.00 in0.0 mm 0.00 in0.0 mm
03:35 AM 40.4°F4.7°C 39.9°F4.4°C 98% 3.3 mph W5.3 kmh W 4.0 mph6.4 kmh 30.46 in1031.5 mb 0.00 in0.0 mm 0.00 in0.0 mm 0.00 in0.0 mm
03:30 AM 40.1°F4.5°C 39.6°F4.2°C 98% 2.2 mph W3.5 kmh W 3.4 mph5.5 kmh 30.46 in1031.5 mb 0.00 in0.0 mm 0.00 in0.0 mm 0.00 in0.0 mm
03:25 AM 39.7°F4.3°C 39.1°F3.9°C 98% 0.8 mph W1.3 kmh W 1.8 mph2.9 kmh 30.46 in1031.5 mb 0.00 in0.0 mm 0.00 in0.0 mm 0.00 in0.0 mm
03:20 AM 39.4°F4.1°C 38.9°F3.8°C 98% Calm Calm 1.3 mph2.1 kmh 30.46 in1031.5 mb 0.00 in0.0 mm 0.00 in0.0 mm 0.00 in0.0 mm
03:15 AM 39.5°F4.2°C 38.9°F3.8°C 98% 0.6 mph W1.0 kmh W 2.0 mph3.2 kmh 30.46 in1031.5 mb 0.00 in0.0 mm 0.00 in0.0 mm 0.00 in0.0 mm
03:10 AM 39.6°F4.2°C 39.1°F3.9°C 98% 0.9 mph W1.4 kmh W 2.0 mph3.2 kmh 30.46 in1031.5 mb 0.00 in0.0 mm 0.00 in0.0 mm 0.00 in0.0 mm
03:05 AM 39.7°F4.3°C 39.1°F3.9°C 98% Calm Calm -- 30.46 in1031.5 mb 0.00 in0.0 mm 0.00 in0.0 mm 0.00 in0.0 mm
03:00 AM 39.7°F4.3°C 39.2°F4.0°C 98% Calm Calm -- 30.46 in1031.5 mb 0.00 in0.0 mm 0.00 in0.0 mm 0.00 in0.0 mm
02:55 AM 39.9°F4.4°C 39.4°F4.1°C 98% 0.9 mph W1.4 kmh W 2.0 mph3.2 kmh 30.46 in1031.5 mb 0.00 in0.0 mm 0.00 in0.0 mm 0.00 in0.0 mm
02:50 AM 39.8°F4.3°C 39.3°F4.1°C 98% 0.9 mph W1.4 kmh W 2.5 mph4.0 kmh 30.46 in1031.5 mb 0.00 in0.0 mm 0.00 in0.0 mm 0.00 in0.0 mm
02:45 AM 40.0°F4.4°C 39.5°F4.2°C 98% Calm Calm -- 30.45 in1031.2 mb 0.00 in0.0 mm 0.00 in0.0 mm 0.00 in0.0 mm
02:40 AM 40.5°F4.7°C 39.9°F4.4°C 98% 1.8 mph W2.9 kmh W 3.1 mph5.0 kmh 30.43 in1030.5 mb 0.00 in0.0 mm 0.00 in0.0 mm 0.00 in0.0 mm
02:35 AM 40.4°F4.7°C 39.9°F4.4°C 98% 3.0 mph WSW4.8 kmh WSW 3.4 mph5.5 kmh 30.43 in1030.5 mb 0.00 in0.0 mm 0.00 in0.0 mm 0.00 in0.0 mm
02:30 AM 40.2°F4.6°C 39.7°F4.3°C 98% 2.7 mph W4.3 kmh W 3.4 mph5.5 kmh 30.43 in1030.5 mb 0.00 in0.0 mm 0.00 in0.0 mm 0.00 in0.0 mm
02:25 AM 39.9°F4.4°C 39.2°F4.0°C 97% 1.6 mph WNW2.6 kmh WNW 2.5 mph4.0 kmh 30.46 in1031.5 mb 0.00 in0.0 mm 0.00 in0.0 mm 0.00 in0.0 mm
02:20 AM 39.7°F4.3°C 39.0°F3.9°C 97% 0.6 mph WNW1.0 kmh WNW 1.6 mph2.6 kmh 30.46 in1031.5 mb 0.00 in0.0 mm 0.00 in0.0 mm 0.00 in0.0 mm
02:15 AM 39.9°F4.4°C 39.1°F3.9°C 97% 0.1 mph WNW0.2 kmh WNW 1.8 mph2.9 kmh 30.46 in1031.5 mb 0.00 in0.0 mm 0.00 in0.0 mm 0.00 in0.0 mm
02:10 AM 40.1°F4.5°C 39.3°F4.1°C 97% 0.4 mph WNW0.6 kmh WNW 1.6 mph2.6 kmh 30.46 in1031.5 mb 0.00 in0.0 mm 0.00 in0.0 mm 0.00 in0.0 mm
02:05 AM 40.3°F4.6°C 39.5°F4.2°C 97% 2.2 mph WNW3.5 kmh WNW 3.1 mph5.0 kmh 30.46 in1031.5 mb 0.00 in0.0 mm 0.00 in0.0 mm 0.00 in0.0 mm
02:00 AM 40.3°F4.6°C 39.5°F4.2°C 97% 1.9 mph W3.1 kmh W 2.9 mph4.7 kmh 30.45 in1031.2 mb 0.00 in0.0 mm 0.00 in0.0 mm 0.00 in0.0 mm
01:55 AM 40.3°F4.6°C 39.5°F4.2°C 97% 1.0 mph W1.6 kmh W 2.9 mph4.7 kmh 30.43 in1030.5 mb 0.00 in0.0 mm 0.00 in0.0 mm 0.00 in0.0 mm
01:50 AM 40.3°F4.6°C 39.5°F4.2°C 97% 0.5 mph W0.8 kmh W 2.7 mph4.3 kmh 30.43 in1030.5 mb 0.00 in0.0 mm 0.00 in0.0 mm 0.00 in0.0 mm
01:45 AM 40.3°F4.6°C 39.5°F4.2°C 97% 0.8 mph W1.3 kmh W 2.0 mph3.2 kmh 30.43 in1030.5 mb 0.00 in0.0 mm 0.00 in0.0 mm 0.00 in0.0 mm
01:40 AM 40.3°F4.6°C 39.5°F4.2°C 97% 0.5 mph WNW0.8 kmh WNW 1.6 mph2.6 kmh 30.46 in1031.5 mb 0.00 in0.0 mm 0.00 in0.0 mm 0.00 in0.0 mm
01:35 AM 40.3°F4.6°C 39.5°F4.2°C 97% 0.1 mph WNW0.2 kmh WNW 1.3 mph2.1 kmh 30.46 in1031.5 mb 0.00 in0.0 mm 0.00 in0.0 mm 0.00 in0.0 mm
01:30 AM 40.3°F4.6°C 39.5°F4.2°C 97% 0.2 mph W0.3 kmh W 1.6 mph2.6 kmh 30.46 in1031.5 mb 0.00 in0.0 mm 0.00 in0.0 mm 0.00 in0.0 mm
01:25 AM 40.1°F4.5°C 39.1°F3.9°C 96% 0.1 mph W0.2 kmh W 1.3 mph2.1 kmh 30.46 in1031.5 mb 0.00 in0.0 mm 0.00 in0.0 mm 0.00 in0.0 mm
01:20 AM 40.4°F4.7°C 39.5°F4.2°C 96% Calm Calm 0.2 mph0.3 kmh 30.46 in1031.5 mb 0.00 in0.0 mm 0.00 in0.0 mm 0.00 in0.0 mm
01:15 AM 40.3°F4.6°C 39.3°F4.1°C 96% 0.1 mph W0.2 kmh W 1.3 mph2.1 kmh 30.45 in1031.2 mb 0.00 in0.0 mm 0.00 in0.0 mm 0.00 in0.0 mm
01:10 AM 40.7°F4.8°C 39.7°F4.3°C 96% Calm Calm -- 30.43 in1030.5 mb 0.00 in0.0 mm 0.00 in0.0 mm 0.00 in0.0 mm
01:05 AM 41.0°F5.0°C 39.9°F4.4°C 96% 0.5 mph W0.8 kmh W 1.6 mph2.6 kmh 30.43 in1030.5 mb 0.00 in0.0 mm 0.00 in0.0 mm 0.00 in0.0 mm
01:00 AM 41.2°F5.1°C 40.2°F4.6°C 96% 0.1 mph W0.2 kmh W 1.6 mph2.6 kmh 30.43 in1030.5 mb 0.00 in0.0 mm 0.00 in0.0 mm 0.00 in0.0 mm
12:55 AM 41.4°F5.2°C 40.3°F4.6°C 96% Calm Calm -- 30.43 in1030.5 mb 0.00 in0.0 mm 0.00 in0.0 mm 0.00 in0.0 mm
12:50 AM 41.6°F5.3°C 40.8°F4.9°C 97% Calm Calm -- 30.43 in1030.5 mb 0.00 in0.0 mm 0.00 in0.0 mm 0.00 in0.0 mm
12:45 AM 42.0°F5.6°C 41.2°F5.1°C 97% 1.0 mph W1.6 kmh W 2.7 mph4.3 kmh 30.43 in1030.5 mb 0.00 in0.0 mm 0.00 in0.0 mm 0.00 in0.0 mm
12:40 AM 42.2°F5.7°C 41.4°F5.2°C 97% 2.0 mph W3.2 kmh W 3.1 mph5.0 kmh -- 0.00 in0.0 mm 0.00 in0.0 mm 0.00 in0.0 mm
12:35 AM 42.4°F5.8°C 41.6°F5.3°C 97% 2.7 mph W4.3 kmh W 3.8 mph6.1 kmh -- 0.00 in0.0 mm 0.00 in0.0 mm 0.00 in0.0 mm
12:30 AM 42.4°F5.8°C 41.6°F5.3°C 97% 2.6 mph W4.2 kmh W 3.4 mph5.5 kmh 30.43 in1030.5 mb 0.00 in0.0 mm 0.00 in0.0 mm 0.00 in0.0 mm
12:25 AM 42.4°F5.8°C 41.6°F5.3°C 97% 3.0 mph W4.8 kmh W 3.8 mph6.1 kmh 30.43 in1030.5 mb 0.00 in0.0 mm 0.00 in0.0 mm 0.00 in0.0 mm
12:20 AM 42.3°F5.7°C 41.3°F5.2°C 96% 2.7 mph W4.3 kmh W 3.4 mph5.5 kmh 30.43 in1030.5 mb 0.00 in0.0 mm 0.00 in0.0 mm 0.00 in0.0 mm
12:15 AM 42.4°F5.8°C 41.4°F5.2°C 96% 2.6 mph W4.2 kmh W 3.1 mph5.0 kmh 30.43 in1030.5 mb 0.00 in0.0 mm 0.00 in0.0 mm 0.00 in0.0 mm
12:10 AM 42.7°F5.9°C 41.7°F5.4°C 96% 3.2 mph WNW5.1 kmh WNW 3.8 mph6.1 kmh 30.40 in1029.5 mb 0.00 in0.0 mm 0.00 in0.0 mm 0.00 in0.0 mm
12:05 AM 42.9°F6.1°C 41.9°F5.5°C 96% 2.6 mph W4.2 kmh W 3.8 mph6.1 kmh 30.40 in1029.5 mb 0.00 in0.0 mm 0.00 in0.0 mm 0.00 in0.0 mm
12:00 AM 43.1°F6.2°C 42.1°F5.6°C 96% 2.9 mph W4.7 kmh W 4.0 mph6.4 kmh 30.40 in1029.5 mb 0.00 in0.0 mm 0.00 in0.0 mm 0.00 in0.0 mm